createdAt,value
2018-11-10T00:00:36.494Z,26.17
2018-11-10T00:03:05.552Z,20.52
2018-11-10T00:05:34.208Z,7.15
2018-11-10T00:08:02.451Z,5.30
2018-11-10T00:10:30.690Z,3.12
2018-11-10T00:12:58.891Z,3.60
2018-11-10T00:15:27.275Z,4.15
2018-11-10T00:17:55.854Z,3.70
2018-11-10T00:20:24.198Z,3.40
2018-11-10T00:22:52.459Z,5.05
2018-11-10T00:25:20.657Z,3.92
2018-11-10T00:27:48.858Z,8.50
2018-11-10T00:30:18.549Z,4.28
2018-11-10T00:32:47.242Z,5.28
2018-11-10T00:35:15.828Z,4.03
2018-11-10T00:37:44.183Z,4.42
2018-11-10T00:40:13.924Z,5.05
2018-11-10T00:42:42.778Z,5.25
2018-11-10T00:45:11.030Z,4.33
2018-11-10T00:47:39.406Z,4.40
2018-11-10T00:50:08.050Z,4.05
2018-11-10T00:52:37.123Z,6.62
2018-11-10T00:55:05.366Z,4.67
2018-11-10T00:57:33.611Z,4.72
2018-11-10T01:00:01.997Z,5.78
2018-11-10T01:02:30.273Z,4.83
2018-11-10T01:04:58.492Z,5.05
2018-11-10T01:07:26.765Z,5.22
2018-11-10T01:09:55.302Z,5.30
2018-11-10T01:12:23.660Z,4.95
2018-11-10T01:14:52.010Z,5.33
2018-11-10T01:17:20.239Z,5.65
2018-11-10T01:19:48.566Z,6.40
2018-11-10T01:22:16.842Z,5.70
2018-11-10T01:24:45.050Z,5.75
2018-11-10T01:27:13.244Z,5.20
2018-11-10T01:29:41.457Z,4.58
2018-11-10T01:32:09.723Z,5.53
2018-11-10T01:34:37.923Z,4.95
2018-11-10T01:37:06.130Z,6.53
2018-11-10T01:39:34.357Z,11.22
2018-11-10T01:42:02.566Z,24.23
2018-11-10T01:44:31.258Z,14.68
2018-11-10T01:46:59.470Z,12.25
2018-11-10T01:49:27.890Z,28.52
2018-11-10T01:51:56.499Z,11.78
2018-11-10T01:54:24.846Z,9.85
2018-11-10T01:56:53.060Z,11.33
2018-11-10T01:59:21.806Z,21.33
2018-11-10T02:01:50.082Z,9.40
2018-11-10T02:04:18.295Z,5.05
2018-11-10T02:06:47.092Z,4.75
2018-11-10T02:09:15.784Z,5.55
2018-11-10T02:11:44.017Z,5.80
2018-11-10T02:14:12.223Z,6.62
2018-11-10T02:16:40.430Z,9.73
2018-11-10T02:19:08.654Z,7.10
2018-11-10T02:21:37.448Z,8.43
2018-11-10T02:24:06.297Z,7.22
2018-11-10T02:26:34.515Z,5.08
2018-11-10T02:29:02.767Z,5.80
2018-11-10T02:31:31.039Z,5.12
2018-11-10T02:33:59.535Z,6.35
2018-11-10T02:36:27.996Z,5.47
2018-11-10T02:38:56.283Z,4.17
2018-11-10T02:41:24.499Z,4.95
2018-11-10T02:43:52.723Z,5.15
2018-11-10T02:46:21.434Z,4.65
2018-11-10T02:48:49.645Z,5.20
2018-11-10T02:51:17.854Z,4.05
2018-11-10T02:53:46.314Z,3.60
2018-11-10T02:56:14.570Z,3.58
2018-11-10T02:58:43.226Z,3.75
2018-11-10T03:01:11.446Z,3.40
2018-11-10T03:03:40.058Z,2.90
2018-11-10T03:06:08.271Z,3.42
2018-11-10T03:08:36.498Z,3.83
2018-11-10T03:11:05.502Z,2.65
2018-11-10T03:13:33.706Z,3.75
2018-11-10T03:16:02.805Z,2.62
2018-11-10T03:18:31.150Z,3.42
2018-11-10T03:20:59.428Z,2.75
2018-11-10T03:23:27.629Z,2.45
2018-11-10T03:25:55.982Z,2.70
2018-11-10T03:28:24.202Z,3.02
2018-11-10T03:30:52.408Z,2.33
2018-11-10T03:33:20.824Z,2.85
2018-11-10T03:35:49.046Z,2.72
2018-11-10T03:38:17.239Z,3.42
2018-11-10T03:40:45.439Z,3.33
2018-11-10T03:43:13.746Z,2.40
2018-11-10T03:45:41.949Z,8.28
2018-11-10T03:48:10.154Z,8.08
2018-11-10T03:50:38.511Z,3.50
2018-11-10T03:53:06.722Z,2.70
2018-11-10T03:55:34.930Z,5.30
2018-11-10T03:58:03.134Z,5.00
2018-11-10T04:00:31.374Z,4.22
2018-11-10T04:02:59.715Z,4.70
2018-11-10T04:05:28.375Z,3.25
2018-11-10T04:07:56.627Z,2.80
2018-11-10T04:10:24.829Z,2.30
2018-11-10T04:12:53.034Z,2.27
2018-11-10T04:15:21.307Z,1.82
2018-11-10T04:17:49.514Z,4.62
2018-11-10T04:20:17.716Z,2.62
2018-11-10T04:22:45.918Z,2.85
2018-11-10T04:25:14.544Z,2.83
2018-11-10T04:27:42.755Z,2.90
2018-11-10T04:30:11.182Z,2.08
2018-11-10T04:32:39.439Z,1.77
2018-11-10T04:35:07.870Z,1.07
2018-11-10T04:37:36.430Z,1.20
2018-11-10T04:40:05.497Z,1.57
2018-11-10T04:42:34.109Z,1.10
2018-11-10T04:45:02.459Z,1.52
2018-11-10T04:47:30.662Z,1.45
2018-11-10T04:49:58.961Z,1.62
2018-11-10T04:52:27.156Z,1.57
2018-11-10T04:54:55.663Z,1.40
2018-11-10T04:57:23.874Z,1.40
2018-11-10T04:59:52.118Z,1.52
2018-11-10T05:02:20.394Z,1.30
2018-11-10T05:04:48.642Z,1.20
2018-11-10T05:07:16.942Z,1.27
2018-11-10T05:09:45.158Z,1.17
2018-11-10T05:12:13.366Z,1.62
2018-11-10T05:14:41.573Z,1.60
2018-11-10T05:17:10.391Z,1.22
2018-11-10T05:19:38.598Z,1.87
2018-11-10T05:22:07.258Z,1.52
2018-11-10T05:24:35.726Z,1.80
2018-11-10T05:27:03.982Z,1.62
2018-11-10T05:29:32.210Z,1.67
2018-11-10T05:32:00.534Z,1.30
2018-11-10T05:34:28.746Z,7.00
2018-11-10T05:36:57.005Z,3.95
2018-11-10T05:39:25.423Z,5.67
2018-11-10T05:41:53.630Z,15.50
2018-11-10T05:44:21.846Z,13.70
2018-11-10T05:46:50.071Z,10.45
2018-11-10T05:49:18.798Z,4.30
2018-11-10T05:51:47.007Z,6.65
2018-11-10T05:54:15.252Z,4.08
2018-11-10T05:56:43.454Z,2.25
2018-11-10T05:59:11.663Z,2.75
2018-11-10T06:01:40.275Z,1.95
2018-11-10T06:04:08.475Z,2.22
2018-11-10T06:06:36.822Z,1.70
2018-11-10T06:09:07.108Z,2.80
2018-11-10T06:11:35.402Z,2.33
2018-11-10T06:14:03.620Z,3.25
2018-11-10T06:16:31.832Z,2.80
2018-11-10T06:19:00.204Z,14.68
2018-11-10T06:21:28.544Z,8.05
2018-11-10T06:23:56.783Z,5.10
2018-11-10T06:26:24.986Z,5.25
2018-11-10T06:28:53.391Z,3.67
2018-11-10T06:31:22.058Z,4.37
2018-11-10T06:33:50.295Z,4.97
2018-11-10T06:36:18.579Z,5.75
2018-11-10T06:38:47.266Z,2.80
2018-11-10T06:41:15.568Z,5.15
2018-11-10T06:43:44.034Z,3.75
2018-11-10T06:46:12.291Z,3.55
2018-11-10T06:48:41.186Z,3.05
2018-11-10T06:51:10.099Z,2.92
2018-11-10T06:53:38.603Z,2.22
2018-11-10T06:56:06.815Z,2.55
2018-11-10T06:58:35.030Z,2.87
2018-11-10T07:01:03.258Z,2.10
2018-11-10T07:03:31.716Z,4.92
2018-11-10T07:05:59.943Z,2.22
2018-11-10T07:08:28.241Z,2.20
2018-11-10T07:10:56.488Z,2.10
2018-11-10T07:13:25.178Z,2.00
2018-11-10T07:15:53.550Z,2.52
2018-11-10T07:18:21.755Z,2.35
2018-11-10T07:20:50.389Z,6.45
2018-11-10T07:23:19.222Z,4.42
2018-11-10T07:25:47.690Z,8.80
2018-11-10T07:28:16.015Z,13.68
2018-11-10T07:30:44.232Z,6.30
2018-11-10T07:33:12.438Z,10.85
2018-11-10T07:35:40.746Z,6.65
2018-11-10T07:38:09.218Z,6.80
2018-11-10T07:40:37.450Z,9.28
2018-11-10T07:43:05.900Z,12.10
2018-11-10T07:45:34.031Z,8.75
2018-11-10T07:48:02.590Z,3.00
2018-11-10T07:50:30.896Z,2.30
2018-11-10T07:52:59.623Z,2.00
2018-11-10T07:55:28.267Z,2.42
2018-11-10T07:57:56.734Z,2.62
2018-11-10T08:00:24.922Z,1.52
2018-11-10T08:02:53.122Z,1.90
2018-11-10T08:05:21.326Z,4.53
2018-11-10T08:07:49.530Z,7.45
2018-11-10T08:10:17.756Z,3.80
2018-11-10T08:12:45.968Z,7.95
2018-11-10T08:15:15.429Z,4.10
2018-11-10T08:17:43.638Z,5.53
2018-11-10T08:20:13.010Z,2.75
2018-11-10T08:22:41.242Z,4.50
2018-11-10T08:25:11.375Z,5.30
2018-11-10T08:27:39.506Z,5.17
2018-11-10T08:30:09.083Z,6.78
2018-11-10T08:32:37.383Z,3.98
2018-11-10T08:35:06.183Z,3.50
2018-11-10T08:37:34.407Z,4.55
2018-11-10T08:40:02.644Z,2.90
2018-11-10T08:42:30.876Z,3.37
2018-11-10T08:44:59.081Z,2.33
2018-11-10T08:47:27.295Z,2.77
2018-11-10T08:49:55.494Z,2.85
2018-11-10T08:52:23.695Z,2.10
2018-11-10T08:54:51.906Z,2.65
2018-11-10T08:57:20.159Z,2.60
2018-11-10T08:59:48.778Z,3.42
2018-11-10T09:02:16.982Z,3.15
2018-11-10T09:04:45.191Z,3.15
2018-11-10T09:07:13.398Z,3.80
2018-11-10T09:09:41.650Z,3.42
2018-11-10T09:12:10.189Z,3.00
2018-11-10T09:14:38.390Z,3.95
2018-11-10T09:17:06.594Z,4.60
2018-11-10T09:19:34.793Z,8.68
2018-11-10T09:22:03.033Z,18.05
2018-11-10T09:24:31.261Z,15.78
2018-11-10T09:26:59.892Z,20.95
2018-11-10T09:29:28.123Z,32.58
2018-11-10T09:31:56.350Z,22.35
2018-11-10T09:34:24.560Z,8.30
2018-11-10T09:36:52.947Z,4.33
2018-11-10T09:39:21.223Z,4.62
2018-11-10T09:41:49.451Z,4.03
2018-11-10T09:44:17.682Z,3.30
2018-11-10T09:46:45.896Z,4.47
2018-11-10T09:49:14.122Z,4.67
2018-11-10T09:51:42.339Z,3.85
2018-11-10T09:54:10.546Z,4.80
2018-11-10T09:56:38.747Z,4.37
2018-11-10T09:59:06.982Z,10.40
2018-11-10T10:01:35.388Z,10.72
2018-11-10T10:04:03.963Z,8.00
2018-11-10T10:06:32.174Z,17.27
2018-11-10T10:09:00.427Z,12.55
2018-11-10T10:11:28.620Z,7.10
2018-11-10T10:13:56.823Z,5.78
2018-11-10T10:16:25.130Z,5.70
2018-11-10T10:18:53.276Z,5.35
2018-11-10T10:21:21.499Z,5.30
2018-11-10T10:23:49.778Z,4.83
2018-11-10T10:26:17.982Z,5.00
2018-11-10T10:28:46.211Z,4.92
2018-11-10T10:31:14.415Z,5.22
2018-11-10T10:33:42.634Z,4.75
2018-11-10T10:36:10.848Z,4.30
2018-11-10T10:38:39.057Z,3.72
2018-11-10T10:41:07.266Z,3.60
2018-11-10T10:43:35.474Z,4.70
2018-11-10T10:46:03.686Z,3.50
2018-11-10T10:48:31.915Z,3.22
2018-11-10T10:51:00.118Z,4.25
2018-11-10T10:53:28.338Z,3.17
2018-11-10T10:55:56.549Z,3.60
2018-11-10T10:58:24.771Z,3.12
2018-11-10T11:00:58.442Z,3.62
2018-11-10T11:05:35.155Z,3.08
2018-11-10T11:08:03.358Z,3.62
2018-11-10T11:10:31.550Z,3.58
2018-11-10T11:13:00.614Z,3.50
2018-11-10T11:15:28.966Z,3.47
2018-11-10T11:17:57.070Z,4.58
2018-11-10T11:20:25.274Z,2.72
2018-11-10T11:22:53.474Z,4.95
2018-11-10T11:25:21.698Z,2.98
2018-11-10T11:27:49.894Z,2.70
2018-11-10T11:30:18.099Z,3.30
2018-11-10T11:32:46.311Z,3.45
2018-11-10T11:35:14.722Z,2.47
2018-11-10T11:37:43.131Z,2.60
2018-11-10T11:40:13.286Z,2.47
2018-11-10T11:42:41.683Z,2.12
2018-11-10T11:45:10.714Z,2.67
2018-11-10T11:47:39.308Z,3.60
2018-11-10T11:50:08.610Z,5.40
2018-11-10T11:52:37.475Z,4.03
2018-11-10T11:55:06.394Z,2.70
2018-11-10T11:57:35.268Z,2.75
2018-11-10T12:00:03.507Z,3.45
2018-11-10T12:02:31.710Z,3.50
2018-11-10T12:04:59.963Z,2.40
2018-11-10T12:07:28.179Z,2.72
2018-11-10T12:09:56.406Z,2.67
2018-11-10T12:12:24.603Z,3.40
2018-11-10T12:14:52.926Z,3.47
2018-11-10T12:17:21.674Z,2.47
2018-11-10T12:19:49.870Z,3.00
2018-11-10T12:22:18.095Z,2.40
2018-11-10T12:24:46.316Z,3.30
2018-11-10T12:27:14.538Z,3.33
2018-11-10T12:29:42.748Z,3.20
2018-11-10T12:32:10.950Z,3.10
2018-11-10T12:34:39.157Z,2.85
2018-11-10T12:37:07.391Z,3.02
2018-11-10T12:39:35.592Z,3.60
2018-11-10T12:42:03.798Z,3.05
2018-11-10T12:44:32.302Z,3.35
2018-11-10T12:47:00.507Z,3.62
2018-11-10T12:49:28.722Z,2.60
2018-11-10T12:51:56.931Z,3.65
2018-11-10T12:54:25.143Z,2.95
2018-11-10T12:56:53.350Z,3.83
2018-11-10T12:59:21.565Z,3.35
2018-11-10T13:01:49.770Z,3.67
2018-11-10T13:04:17.975Z,3.75
2018-11-10T13:06:46.266Z,5.40
2018-11-10T13:09:14.479Z,3.95
2018-11-10T13:11:42.808Z,7.12
2018-11-10T13:14:11.466Z,5.35
2018-11-10T13:16:39.996Z,5.35
2018-11-10T13:19:09.489Z,8.93
2018-11-10T13:21:38.119Z,5.00
2018-11-10T13:24:06.340Z,4.97
2018-11-10T13:26:34.559Z,7.22
2018-11-10T13:29:02.779Z,4.58
2018-11-10T13:31:31.078Z,4.35
2018-11-10T13:33:59.243Z,4.60
2018-11-10T13:36:27.462Z,3.90
2018-11-10T13:38:55.842Z,4.12
2018-11-10T13:41:24.055Z,3.60
2018-11-10T13:43:52.325Z,3.22
2018-11-10T13:46:20.499Z,4.15
2018-11-10T13:48:48.710Z,3.72
2018-11-10T13:51:17.179Z,3.70
2018-11-10T13:53:45.187Z,3.67
2018-11-10T13:56:13.422Z,3.67
2018-11-10T13:58:41.618Z,4.80
2018-11-10T14:01:09.826Z,4.35
2018-11-10T14:03:38.034Z,3.92
2018-11-10T14:06:06.306Z,4.08
2018-11-10T14:08:34.482Z,5.00
2018-11-10T14:11:02.702Z,5.30
2018-11-10T14:13:30.906Z,5.72
2018-11-10T14:15:59.159Z,4.60
2018-11-10T14:18:27.466Z,5.17
2018-11-10T14:20:55.674Z,5.58
2018-11-10T14:23:23.929Z,4.15
2018-11-10T14:25:52.130Z,4.03
2018-11-10T14:28:20.331Z,3.90
2018-11-10T14:30:48.543Z,4.97
2018-11-10T14:33:16.754Z,4.95
2018-11-10T14:35:44.962Z,5.03
2018-11-10T14:38:13.177Z,4.95
2018-11-10T14:40:41.374Z,5.00
2018-11-10T14:43:09.774Z,5.33
2018-11-10T14:45:38.011Z,4.15
2018-11-10T14:48:06.258Z,4.20
2018-11-10T14:50:34.450Z,4.72
2018-11-10T14:53:02.807Z,4.28
2018-11-10T14:55:30.891Z,5.17
2018-11-10T14:57:59.094Z,5.12
2018-11-10T15:00:28.770Z,6.55
2018-11-10T15:02:56.980Z,6.10
2018-11-10T15:05:25.223Z,5.58
2018-11-10T15:07:53.430Z,9.23
2018-11-10T15:10:21.663Z,24.43
2018-11-10T15:12:49.885Z,10.18
2018-11-10T15:15:18.827Z,10.40
2018-11-10T15:17:47.179Z,8.53
2018-11-10T15:20:16.636Z,15.05
2018-11-10T15:22:44.872Z,17.57
2018-11-10T15:25:15.495Z,9.03
2018-11-10T15:27:43.686Z,8.10
2018-11-10T15:30:15.701Z,7.87
2018-11-10T15:32:44.737Z,7.65
2018-11-10T15:35:14.046Z,8.30
2018-11-10T15:37:43.486Z,8.50
2018-11-10T15:40:12.498Z,9.38
2018-11-10T15:42:40.774Z,9.18
2018-11-10T15:45:10.130Z,9.50
2018-11-10T15:47:38.503Z,11.65
2018-11-10T15:50:07.259Z,11.60
2018-11-10T15:52:35.675Z,9.33
2018-11-10T15:55:04.362Z,9.85
2018-11-10T15:57:32.559Z,9.28
2018-11-10T16:00:00.772Z,9.55
2018-11-10T16:02:28.980Z,10.25
2018-11-10T16:04:57.197Z,10.55
2018-11-10T16:07:25.423Z,10.95
2018-11-10T16:09:53.652Z,12.15
2018-11-10T16:12:21.914Z,11.95
2018-11-10T16:14:50.119Z,11.65
2018-11-10T16:17:18.324Z,13.00
2018-11-10T16:19:46.565Z,12.65
2018-11-10T16:22:14.800Z,11.80
2018-11-10T16:24:43.011Z,13.05
2018-11-10T16:27:11.226Z,13.22
2018-11-10T16:29:39.441Z,14.68
2018-11-10T16:32:07.759Z,14.55
2018-11-10T16:34:36.002Z,13.28
2018-11-10T16:37:04.470Z,12.78
2018-11-10T16:39:32.675Z,14.03
2018-11-10T16:42:00.894Z,13.08
2018-11-10T16:44:29.112Z,13.80
2018-11-10T16:46:57.356Z,13.15
2018-11-10T16:49:25.845Z,12.88
2018-11-10T16:51:54.063Z,14.38
2018-11-10T16:54:22.328Z,13.53
2018-11-10T16:56:50.618Z,14.75
2018-11-10T16:59:18.859Z,14.35
2018-11-10T17:01:47.075Z,12.98
2018-11-10T17:04:15.863Z,13.72
2018-11-10T17:06:44.101Z,13.43
2018-11-10T17:09:13.478Z,23.05
2018-11-10T17:11:41.734Z,17.55
2018-11-10T17:14:11.446Z,15.40
2018-11-10T17:16:40.406Z,16.75
2018-11-10T17:19:09.669Z,15.85
2018-11-10T17:21:37.969Z,16.95
2018-11-10T17:24:06.138Z,15.08
2018-11-10T17:26:34.442Z,14.10
2018-11-10T17:29:02.679Z,15.20
2018-11-10T17:31:30.894Z,15.88
2018-11-10T17:33:59.694Z,14.78
2018-11-10T17:36:28.387Z,14.30
2018-11-10T17:38:56.644Z,15.68
2018-11-10T17:41:25.352Z,16.50
2018-11-10T17:43:53.566Z,16.23
2018-11-10T17:46:21.772Z,16.75
2018-11-10T17:48:50.002Z,15.60
2018-11-10T17:51:18.222Z,15.95
2018-11-10T17:53:46.787Z,16.52
2018-11-10T17:56:15.013Z,15.78
2018-11-10T17:58:43.311Z,16.70
2018-11-10T18:01:11.506Z,16.57
2018-11-10T18:03:39.926Z,18.35
2018-11-10T18:06:08.104Z,17.77
2018-11-10T18:08:36.318Z,18.75
2018-11-10T18:11:04.839Z,14.90
2018-11-10T18:13:33.045Z,16.57
2018-11-10T18:16:01.242Z,17.80
2018-11-10T18:18:29.476Z,17.27
2018-11-10T18:20:57.781Z,18.40
2018-11-10T18:23:25.986Z,18.48
2018-11-10T18:25:54.219Z,17.25
2018-11-10T18:28:22.448Z,19.95
2018-11-10T18:30:50.663Z,18.40
2018-11-10T18:33:18.890Z,19.60
2018-11-10T18:35:47.130Z,18.67
2018-11-10T18:38:15.666Z,17.50
2018-11-10T18:40:43.871Z,17.07
2018-11-10T18:43:12.097Z,18.45
2018-11-10T18:45:40.311Z,17.60
2018-11-10T18:48:08.531Z,18.15
2018-11-10T18:50:36.886Z,18.35
2018-11-10T18:53:05.166Z,18.15
2018-11-10T18:55:33.378Z,23.98
2018-11-10T18:58:01.655Z,16.97
2018-11-10T19:00:29.834Z,18.30
2018-11-10T19:02:58.051Z,20.30
2018-11-10T19:05:26.278Z,23.02
2018-11-10T19:07:54.490Z,22.15
2018-11-10T19:10:22.716Z,28.05
2018-11-10T19:12:50.996Z,21.87
2018-11-10T19:15:20.655Z,21.60
2018-11-10T19:17:48.990Z,20.70
2018-11-10T19:20:18.033Z,18.23
2018-11-10T19:22:46.312Z,16.42
2018-11-10T19:25:15.051Z,16.95
2018-11-10T19:27:43.271Z,17.52
2018-11-10T19:30:14.871Z,19.23
2018-11-10T19:32:43.552Z,19.20
2018-11-10T19:35:11.944Z,18.75
2018-11-10T19:37:40.150Z,19.85
2018-11-10T19:40:08.955Z,25.60
2018-11-10T19:42:37.235Z,20.60
2018-11-10T19:45:06.022Z,18.70
2018-11-10T19:47:34.239Z,18.85
2018-11-10T19:50:02.463Z,19.70
2018-11-10T19:52:30.696Z,18.27
2018-11-10T19:54:58.902Z,18.37
2018-11-10T19:57:27.123Z,19.92
2018-11-10T19:59:55.338Z,17.15
2018-11-10T20:02:23.546Z,19.10
2018-11-10T20:04:51.770Z,18.55
2018-11-10T20:07:20.036Z,18.15
2018-11-10T20:09:48.263Z,18.30
2018-11-10T20:12:16.490Z,19.37
2018-11-10T20:14:44.759Z,16.32
2018-11-10T20:17:12.975Z,19.25
2018-11-10T20:19:41.288Z,20.65
2018-11-10T20:22:09.460Z,18.40
2018-11-10T20:24:37.670Z,19.55
2018-11-10T20:27:05.900Z,19.52
2018-11-10T20:29:34.112Z,19.55
2018-11-10T20:32:02.329Z,19.65
2018-11-10T20:34:30.560Z,17.20
2018-11-10T20:36:58.778Z,17.52
2018-11-10T20:39:26.986Z,16.87
2018-11-10T20:41:55.198Z,17.92
2018-11-10T20:44:23.419Z,18.20
2018-11-10T20:46:51.654Z,19.77
2018-11-10T20:49:19.877Z,15.90
2018-11-10T20:51:48.102Z,18.67
2018-11-10T20:54:16.319Z,19.55
2018-11-10T20:56:44.528Z,18.48
2018-11-10T20:59:12.741Z,20.82
2018-11-10T21:01:40.951Z,33.35
2018-11-10T21:04:09.189Z,21.85
2018-11-10T21:06:37.879Z,24.45
2018-11-10T21:09:08.003Z,24.18
2018-11-10T21:11:36.253Z,18.60
2018-11-10T21:14:04.503Z,20.00
2018-11-10T21:16:32.755Z,20.40
2018-11-10T21:19:00.960Z,19.27
2018-11-10T21:21:29.174Z,17.60
2018-11-10T21:23:57.410Z,17.48
2018-11-10T21:26:25.635Z,19.35
2018-11-10T21:28:53.908Z,19.23
2018-11-10T21:31:22.100Z,18.98
2018-11-10T21:33:50.332Z,20.00
2018-11-10T21:36:18.551Z,18.82
2018-11-10T21:38:46.757Z,21.07
2018-11-10T21:41:15.131Z,19.50
2018-11-10T21:43:43.556Z,19.80
2018-11-10T21:46:11.723Z,20.68
2018-11-10T21:48:39.930Z,19.02
2018-11-10T21:51:08.140Z,19.67
2018-11-10T21:53:36.351Z,20.12
2018-11-10T21:56:04.830Z,18.37
2018-11-10T21:58:33.038Z,20.40
2018-11-10T22:01:01.258Z,17.95
2018-11-10T22:03:29.469Z,18.70
2018-11-10T22:05:57.675Z,18.25
2018-11-10T22:08:26.090Z,16.40
2018-11-10T22:10:54.298Z,21.23
2018-11-10T22:13:22.532Z,19.57
2018-11-10T22:15:50.806Z,21.37
2018-11-10T22:18:19.051Z,20.32
2018-11-10T22:20:47.291Z,20.35
2018-11-10T22:23:15.520Z,19.92
2018-11-10T22:25:43.734Z,17.92
2018-11-10T22:28:11.942Z,19.90
2018-11-10T22:30:40.163Z,22.40
2018-11-10T22:33:08.426Z,19.25
2018-11-10T22:35:37.050Z,17.70
2018-11-10T22:38:05.298Z,18.48
2018-11-10T22:40:33.530Z,19.82
2018-11-10T22:43:01.763Z,18.92
2018-11-10T22:45:29.959Z,18.85
2018-11-10T22:47:58.215Z,18.55
2018-11-10T22:50:26.402Z,18.37
2018-11-10T22:52:54.597Z,19.57
2018-11-10T22:55:22.844Z,25.57
2018-11-10T22:57:51.042Z,28.10
2018-11-10T23:00:25.266Z,21.68
2018-11-10T23:02:55.554Z,23.70
2018-11-10T23:05:24.346Z,19.98
2018-11-10T23:07:52.558Z,18.95
2018-11-10T23:10:21.052Z,16.42
2018-11-10T23:12:50.750Z,19.12
2018-11-10T23:15:18.954Z,18.12
2018-11-10T23:17:47.167Z,19.23
2018-11-10T23:20:17.652Z,18.65
2018-11-10T23:22:45.909Z,16.57
2018-11-10T23:25:15.427Z,18.37
2018-11-10T23:27:43.654Z,16.32
2018-11-10T23:30:14.057Z,16.70
2018-11-10T23:32:42.327Z,16.95
2018-11-10T23:35:11.402Z,16.77
2018-11-10T23:37:40.386Z,15.90
2018-11-10T23:40:09.722Z,18.50
2018-11-10T23:42:38.593Z,18.05
2018-11-10T23:45:07.024Z,18.67
2018-11-10T23:47:35.447Z,15.32
2018-11-10T23:50:03.713Z,15.90
2018-11-10T23:52:31.926Z,15.88
2018-11-10T23:55:00.139Z,15.68
2018-11-10T23:57:28.354Z,12.37
2018-11-10T23:59:56.555Z,16.52
